*** The Vicarage Weather Feed ***

Nearby METAR Reports


 

CYOO - Oshawa, Municipal Airport, Ontario, Canada
Distance from station: NW 3.2km
Updated: 25/09/2020 08:00
Overcast
Overcast
 Wind from ESE
Wind: ESE 7 km/h
Temperature: 16°C
Dew Point: 16°C
Humidity: 100%
Barometer: 1017.6 hPa
Clouds: Overcast
Visibility: 13 km
Cloud details: Overcast 244 m
2020/09/25 12:00 CYOO 251200Z AUTO 12004KT 8SM OVC008 16/16 A3005 RMK SLP177
CYKZ - Toronto, Buttonville, Municipal Airport, Ontario, Canada
Distance from station: W 39.75km
Updated: 03/01/2019 04:00
NOT Current
Partly cloudy
Partly cloudy
 Wind from WSW
Wind: WSW 7 km/h
Temperature: -3°C
Wind Chill: -6°C
Dew Point: -5°C
Humidity: 86%
Barometer: 1010.8 hPa
Clouds: Partly cloudy
Visibility: 24 km
Cloud details: Partly cloudy 1219 m
2019/01/03 09:00 CYKZ 030900Z 25004KT 15SM SCT040 M03/M05 A2985 RMK SC3 LAST STFD OBS FAREWELL SLP118
 
CXTO - Toronto City, Buttonville, Ontario, Canada
Distance from station: WSW 49km
Updated: 25/09/2020 08:00

 
Temperature: 17°C
Dew Point: 15°C
Humidity: 88%
2020/09/25 12:00 CXTO 251200Z AUTO 17/15 RMK AO1 SLP179 T01690149 51019
CYTZ - Toronto City, Island Airport, Ontario, Canada
Distance from station: SW 51.7km
Updated: 25/09/2020 08:00
Mist, Overcast
Mist, Overcast
 Wind from E
Wind: E 9 km/h
Temperature: 17°C
Dew Point: 16°C
Humidity: 94%
Barometer: 1017.3 hPa
Summary: Mist
Clouds: Overcast
Visibility: 6 km
Cloud details: Overcast 183 m
2020/09/25 12:00 CYTZ 251200Z AUTO 08005KT 4SM BR OVC006 17/16 A3004 RMK SLP173 DENSITY ALT 400FT
 
CYPQ - Toronto, Peterborough Airport, Ontario, Canada
Distance from station: NE 54km
Updated: 25/09/2020 08:00
Overcast
Overcast
 Wind from varies
Wind: varies 4 km/h
Temperature: 14°C
Dew Point: 13°C
Humidity: 94%
Barometer: 1017.6 hPa
Clouds: Overcast
Visibility: 14 km
Cloud details: Overcast 244 m
2020/09/25 12:00 CYPQ 251200Z AUTO VRB02KT 9SM OVC008 14/13 A3005 RMK SLP180
CWNC - Cobourg, (mars), Ontario, Canada
Distance from station: E 57km
Updated: 25/09/2020 08:00

 Wind from NE
Wind: NE 4 km/h
Temperature: 16°C
Dew Point: 13°C
Humidity: 83%
2020/09/25 12:00 CWNC 251200Z AUTO 05002KT 16/13 RMK AO1 SLP176 T01580132 51019
 
CYYZ - Toronto, Lester Pearson Airport, Ontario, Canada
Distance from station: W 65.5km
Updated: 25/09/2020 08:32
Mist, Overcast
Mist, Overcast
 Wind from SE
Wind: SE 6 km/h
Temperature: 16°C
Dew Point: 16°C
Humidity: 100%
Barometer: 1017.6 hPa
Summary: Mist
Clouds: Overcast
Visibility: 1.2 km
Cloud details: Overcast 122 m
2020/09/25 12:32 CYYZ 251232Z 13003KT 110V190 3/4SM R06L/P6000FT/U R05/1800FT/N BR OVC004 16/16 A3005 RMK FG6ST2 SLP178 DENSITY ALT 700FT
CWGL - Lagoon City, Ontario, Canada
Distance from station: NNW 74km
Updated: 25/09/2020 08:00

 Wind from ESE
Wind: ESE 7 km/h
Temperature: 13°C
Dew Point: 12°C
Humidity: 94%
2020/09/25 12:00 CWGL 251200Z AUTO 11004KT 13/12 RMK AO1 SLP161 T01270117 52015
 
CWWZ - Port Weller Airport, Ontario, Canada
Distance from station: SSW 77km
Updated: 25/09/2020 08:00

 Wind from SSW
Wind: SSW 6 km/h
Temperature: 17°C
Dew Point: 16°C
Humidity: 94%
2020/09/25 12:00 CWWZ 251200Z AUTO 21003KT 17/16 RMK AO1 SLP176 T01710157 51021
CYSN - St.Catharines Niagara Airport, Ontario, Canada
Distance from station: SSW 81km
Updated: 25/09/2020 08:00
Mist, Few clouds
Mist, Few clouds
 Wind from S
Wind: S 9 km/h
Temperature: 15°C
Dew Point: 14°C
Humidity: 94%
Barometer: 1017.3 hPa
Summary: Mist
Clouds: Few Clouds
Visibility: 8 km
Cloud details: Few Clouds 2438 m
Few Clouds 7620 m
2020/09/25 12:00 CYSN 251200Z 19005KT 5SM BR FEW080 FEW250 15/14 A3004 RMK AC1CI2 AC TR SLP175
This data is offered only as a general guide to local weather conditions. It should not be relied upon in lieu of officially disseminated weather information for determining possible risk to persons or property. This site, including all information contained therein, is made available as is without warranties of any kind, either express or implied. The Vicarage Weather Feed© includes links to other sites for user convenience only. The content of any linked third-party site is not controlled by The Vicarage Weather Feed©. Access to any third-party website through The Vicarage Weather Feed©, regardless of whether or not the third-party site is a linked site, is entirely at the users own risk. Externally sourced content or material is excluded from The Vicarage Weather Feed© copyright and is the copyright and property of the respective provider. Skywarn® and the Skywarn® logo are registered trademarks of the National Oceanic and Atmospheric Administration, used with permission.